sensor_id;sensor_type;location;lat;lon;timestamp;P1;durP1;ratioP1;P2;durP2;ratioP2
60169;SDS011;46042;49.444;6.862;2024-02-21T00:00:18;17.20;;;5.78;;
60169;SDS011;46042;49.444;6.862;2024-02-21T00:02:45;12.05;;;4.90;;
60169;SDS011;46042;49.444;6.862;2024-02-21T00:05:15;11.07;;;5.32;;
60169;SDS011;46042;49.444;6.862;2024-02-21T00:07:45;11.32;;;5.03;;
60169;SDS011;46042;49.444;6.862;2024-02-21T00:10:12;14.30;;;5.45;;
60169;SDS011;46042;49.444;6.862;2024-02-21T00:12:40;11.77;;;4.90;;
60169;SDS011;46042;49.444;6.862;2024-02-21T00:15:07;9.05;;;4.47;;
60169;SDS011;46042;49.444;6.862;2024-02-21T00:17:34;15.07;;;4.97;;
60169;SDS011;46042;49.444;6.862;2024-02-21T00:20:00;19.13;;;6.03;;
60169;SDS011;46042;49.444;6.862;2024-02-21T00:22:28;11.20;;;5.63;;
60169;SDS011;46042;49.444;6.862;2024-02-21T00:24:57;19.33;;;5.15;;
60169;SDS011;46042;49.444;6.862;2024-02-21T00:27:27;21.58;;;5.97;;
60169;SDS011;46042;49.444;6.862;2024-02-21T00:29:54;15.52;;;5.18;;
60169;SDS011;46042;49.444;6.862;2024-02-21T00:32:21;9.82;;;4.78;;
60169;SDS011;46042;49.444;6.862;2024-02-21T00:34:48;10.45;;;4.57;;
60169;SDS011;46042;49.444;6.862;2024-02-21T00:37:14;13.70;;;4.95;;
60169;SDS011;46042;49.444;6.862;2024-02-21T00:39:41;10.27;;;5.05;;
60169;SDS011;46042;49.444;6.862;2024-02-21T00:42:12;14.82;;;5.75;;
60169;SDS011;46042;49.444;6.862;2024-02-21T00:44:38;7.78;;;4.25;;
60169;SDS011;46042;49.444;6.862;2024-02-21T00:47:05;14.10;;;4.80;;
60169;SDS011;46042;49.444;6.862;2024-02-21T00:49:32;17.25;;;4.97;;
60169;SDS011;46042;49.444;6.862;2024-02-21T00:51:59;13.27;;;5.38;;
60169;SDS011;46042;49.444;6.862;2024-02-21T00:54:26;14.20;;;5.20;;
60169;SDS011;46042;49.444;6.862;2024-02-21T00:57:02;8.68;;;4.75;;
60169;SDS011;46042;49.444;6.862;2024-02-21T00:59:28;11.68;;;4.90;;
60169;SDS011;46042;49.444;6.862;2024-02-21T01:01:55;10.73;;;4.80;;
60169;SDS011;46042;49.444;6.862;2024-02-21T01:04:22;11.00;;;4.82;;
60169;SDS011;46042;49.444;6.862;2024-02-21T01:06:51;12.10;;;5.35;;
60169;SDS011;46042;49.444;6.862;2024-02-21T01:09:17;21.25;;;4.60;;
60169;SDS011;46042;49.444;6.862;2024-02-21T01:11:47;10.85;;;4.28;;
60169;SDS011;46042;49.444;6.862;2024-02-21T01:14:14;14.45;;;5.63;;
60169;SDS011;46042;49.444;6.862;2024-02-21T01:20:27;15.70;;;5.13;;
60169;SDS011;46042;49.444;6.862;2024-02-21T01:22:54;12.07;;;4.68;;
60169;SDS011;46042;49.444;6.862;2024-02-21T01:25:21;9.27;;;4.32;;
60169;SDS011;46042;49.444;6.862;2024-02-21T01:27:48;14.35;;;4.95;;
60169;SDS011;46042;49.444;6.862;2024-02-21T01:30:14;13.38;;;4.97;;
60169;SDS011;46042;49.444;6.862;2024-02-21T01:32:41;17.13;;;5.05;;
60169;SDS011;46042;49.444;6.862;2024-02-21T01:35:08;24.10;;;5.00;;
60169;SDS011;46042;49.444;6.862;2024-02-21T01:37:36;10.52;;;4.45;;
60169;SDS011;46042;49.444;6.862;2024-02-21T01:40:03;12.10;;;4.85;;
60169;SDS011;46042;49.444;6.862;2024-02-21T01:42:30;13.50;;;4.75;;
60169;SDS011;46042;49.444;6.862;2024-02-21T01:44:56;13.45;;;4.55;;
60169;SDS011;46042;49.444;6.862;2024-02-21T01:47:23;10.60;;;4.13;;
60169;SDS011;46042;49.444;6.862;2024-02-21T01:49:50;15.27;;;4.80;;
60169;SDS011;46042;49.444;6.862;2024-02-21T01:52:20;13.02;;;4.28;;
60169;SDS011;46042;49.444;6.862;2024-02-21T01:54:47;12.63;;;4.18;;
60169;SDS011;46042;49.444;6.862;2024-02-21T01:57:14;15.68;;;4.43;;
60169;SDS011;46042;49.444;6.862;2024-02-21T01:59:47;15.13;;;4.45;;
60169;SDS011;46042;49.444;6.862;2024-02-21T02:02:14;11.75;;;5.22;;
60169;SDS011;46042;49.444;6.862;2024-02-21T02:04:46;12.20;;;4.32;;
60169;SDS011;46042;49.444;6.862;2024-02-21T02:07:13;11.18;;;4.53;;
60169;SDS011;46042;49.444;6.862;2024-02-21T02:09:43;17.45;;;4.55;;
60169;SDS011;46042;49.444;6.862;2024-02-21T02:12:10;10.10;;;4.07;;
60169;SDS011;46042;49.444;6.862;2024-02-21T02:14:36;18.33;;;4.97;;
60169;SDS011;46042;49.444;6.862;2024-02-21T02:17:04;13.07;;;4.72;;
60169;SDS011;46042;49.444;6.862;2024-02-21T02:19:31;15.10;;;5.55;;
60169;SDS011;46042;49.444;6.862;2024-02-21T02:22:06;14.52;;;5.63;;
60169;SDS011;46042;49.444;6.862;2024-02-21T02:24:43;11.23;;;4.20;;
60169;SDS011;46042;49.444;6.862;2024-02-21T02:27:10;12.45;;;5.10;;
60169;SDS011;46042;49.444;6.862;2024-02-21T02:29:37;10.43;;;4.47;;
60169;SDS011;46042;49.444;6.862;2024-02-21T02:32:03;9.15;;;4.07;;
60169;SDS011;46042;49.444;6.862;2024-02-21T02:34:31;16.05;;;4.50;;
60169;SDS011;46042;49.444;6.862;2024-02-21T02:36:57;11.02;;;4.43;;
60169;SDS011;46042;49.444;6.862;2024-02-21T02:39:24;14.32;;;4.97;;
60169;SDS011;46042;49.444;6.862;2024-02-21T02:41:51;16.58;;;4.22;;
60169;SDS011;46042;49.444;6.862;2024-02-21T02:44:18;9.90;;;4.72;;
60169;SDS011;46042;49.444;6.862;2024-02-21T02:46:44;11.63;;;5.00;;
60169;SDS011;46042;49.444;6.862;2024-02-21T02:49:13;8.68;;;4.13;;
60169;SDS011;46042;49.444;6.862;2024-02-21T02:51:42;8.93;;;5.18;;
60169;SDS011;46042;49.444;6.862;2024-02-21T02:54:10;11.65;;;4.75;;
60169;SDS011;46042;49.444;6.862;2024-02-21T02:56:37;8.57;;;4.00;;
60169;SDS011;46042;49.444;6.862;2024-02-21T02:59:04;18.00;;;4.50;;
60169;SDS011;46042;49.444;6.862;2024-02-21T03:01:33;10.98;;;4.20;;
60169;SDS011;46042;49.444;6.862;2024-02-21T03:04:01;7.65;;;3.80;;
60169;SDS011;46042;49.444;6.862;2024-02-21T03:06:29;11.85;;;4.28;;
60169;SDS011;46042;49.444;6.862;2024-02-21T03:08:58;23.52;;;4.55;;
60169;SDS011;46042;49.444;6.862;2024-02-21T03:11:26;13.65;;;5.20;;
60169;SDS011;46042;49.444;6.862;2024-02-21T03:13:56;16.08;;;5.28;;
60169;SDS011;46042;49.444;6.862;2024-02-21T03:16:23;14.00;;;4.60;;
60169;SDS011;46042;49.444;6.862;2024-02-21T03:18:50;20.40;;;5.28;;
60169;SDS011;46042;49.444;6.862;2024-02-21T03:21:20;13.80;;;4.35;;
60169;SDS011;46042;49.444;6.862;2024-02-21T03:23:47;10.73;;;4.55;;
60169;SDS011;46042;49.444;6.862;2024-02-21T03:26:13;12.75;;;3.97;;
60169;SDS011;46042;49.444;6.862;2024-02-21T03:28:44;12.98;;;4.20;;
60169;SDS011;46042;49.444;6.862;2024-02-21T03:31:14;10.02;;;4.03;;
60169;SDS011;46042;49.444;6.862;2024-02-21T03:33:42;15.57;;;4.60;;
60169;SDS011;46042;49.444;6.862;2024-02-21T03:36:13;15.20;;;4.57;;
60169;SDS011;46042;49.444;6.862;2024-02-21T03:38:41;8.80;;;3.85;;
60169;SDS011;46042;49.444;6.862;2024-02-21T03:41:08;10.20;;;4.07;;
60169;SDS011;46042;49.444;6.862;2024-02-21T03:43:38;14.98;;;4.15;;
60169;SDS011;46042;49.444;6.862;2024-02-21T03:46:05;9.85;;;3.72;;
60169;SDS011;46042;49.444;6.862;2024-02-21T03:48:33;10.40;;;3.72;;
60169;SDS011;46042;49.444;6.862;2024-02-21T03:51:00;12.18;;;3.33;;
60169;SDS011;46042;49.444;6.862;2024-02-21T03:53:26;11.25;;;3.50;;
60169;SDS011;46042;49.444;6.862;2024-02-21T03:55:55;10.13;;;3.88;;
60169;SDS011;46042;49.444;6.862;2024-02-21T03:58:22;9.75;;;3.88;;
60169;SDS011;46042;49.444;6.862;2024-02-21T04:00:49;7.65;;;3.50;;
60169;SDS011;46042;49.444;6.862;2024-02-21T04:03:16;8.38;;;3.67;;
60169;SDS011;46042;49.444;6.862;2024-02-21T04:05:42;15.95;;;3.90;;
60169;SDS011;46042;49.444;6.862;2024-02-21T04:08:09;9.75;;;2.90;;
60169;SDS011;46042;49.444;6.862;2024-02-21T04:10:36;10.75;;;3.83;;
60169;SDS011;46042;49.444;6.862;2024-02-21T04:13:04;26.92;;;4.07;;
60169;SDS011;46042;49.444;6.862;2024-02-21T04:15:32;14.90;;;3.75;;
60169;SDS011;46042;49.444;6.862;2024-02-21T04:18:00;7.55;;;3.10;;
60169;SDS011;46042;49.444;6.862;2024-02-21T04:20:27;11.18;;;3.50;;
60169;SDS011;46042;49.444;6.862;2024-02-21T04:22:54;9.77;;;3.47;;
60169;SDS011;46042;49.444;6.862;2024-02-21T04:25:21;7.10;;;3.75;;
60169;SDS011;46042;49.444;6.862;2024-02-21T04:27:48;9.05;;;3.53;;
60169;SDS011;46042;49.444;6.862;2024-02-21T04:30:15;11.82;;;3.78;;
60169;SDS011;46042;49.444;6.862;2024-02-21T04:32:42;14.45;;;3.78;;
60169;SDS011;46042;49.444;6.862;2024-02-21T04:35:09;6.28;;;3.60;;
60169;SDS011;46042;49.444;6.862;2024-02-21T04:37:36;10.73;;;3.30;;
60169;SDS011;46042;49.444;6.862;2024-02-21T04:40:03;9.68;;;4.15;;
60169;SDS011;46042;49.444;6.862;2024-02-21T04:42:30;11.82;;;3.58;;
60169;SDS011;46042;49.444;6.862;2024-02-21T04:44:56;13.07;;;3.50;;
60169;SDS011;46042;49.444;6.862;2024-02-21T04:47:23;8.98;;;3.75;;
60169;SDS011;46042;49.444;6.862;2024-02-21T04:49:51;17.80;;;3.78;;
60169;SDS011;46042;49.444;6.862;2024-02-21T04:52:18;8.48;;;3.67;;
60169;SDS011;46042;49.444;6.862;2024-02-21T04:54:45;9.02;;;3.40;;
60169;SDS011;46042;49.444;6.862;2024-02-21T04:57:11;7.65;;;3.15;;
60169;SDS011;46042;49.444;6.862;2024-02-21T04:59:43;12.60;;;3.30;;
60169;SDS011;46042;49.444;6.862;2024-02-21T05:02:11;8.20;;;3.17;;
60169;SDS011;46042;49.444;6.862;2024-02-21T05:08:20;8.77;;;3.25;;
60169;SDS011;46042;49.444;6.862;2024-02-21T05:10:47;13.48;;;3.08;;
60169;SDS011;46042;49.444;6.862;2024-02-21T05:13:19;7.13;;;2.88;;
60169;SDS011;46042;49.444;6.862;2024-02-21T05:15:47;7.47;;;3.03;;
60169;SDS011;46042;49.444;6.862;2024-02-21T05:18:17;11.93;;;3.65;;
60169;SDS011;46042;49.444;6.862;2024-02-21T05:20:43;9.73;;;3.72;;
60169;SDS011;46042;49.444;6.862;2024-02-21T05:23:10;11.48;;;3.42;;
60169;SDS011;46042;49.444;6.862;2024-02-21T05:25:37;10.93;;;3.53;;
60169;SDS011;46042;49.444;6.862;2024-02-21T05:28:04;13.73;;;3.67;;
60169;SDS011;46042;49.444;6.862;2024-02-21T05:30:32;8.90;;;3.10;;
60169;SDS011;46042;49.444;6.862;2024-02-21T05:33:05;7.60;;;3.25;;
60169;SDS011;46042;49.444;6.862;2024-02-21T05:35:33;10.73;;;3.72;;
60169;SDS011;46042;49.444;6.862;2024-02-21T05:38:00;8.15;;;3.30;;
60169;SDS011;46042;49.444;6.862;2024-02-21T05:40:28;15.32;;;3.47;;
60169;SDS011;46042;49.444;6.862;2024-02-21T05:43:01;18.95;;;3.83;;
60169;SDS011;46042;49.444;6.862;2024-02-21T05:45:28;12.88;;;3.35;;
60169;SDS011;46042;49.444;6.862;2024-02-21T05:47:55;10.00;;;2.90;;
60169;SDS011;46042;49.444;6.862;2024-02-21T05:50:23;16.48;;;3.92;;
60169;SDS011;46042;49.444;6.862;2024-02-21T05:52:57;6.63;;;2.50;;
60169;SDS011;46042;49.444;6.862;2024-02-21T05:55:24;9.60;;;3.22;;
60169;SDS011;46042;49.444;6.862;2024-02-21T05:57:53;9.38;;;2.85;;
60169;SDS011;46042;49.444;6.862;2024-02-21T06:00:21;12.93;;;3.53;;
60169;SDS011;46042;49.444;6.862;2024-02-21T06:02:47;8.57;;;3.17;;
60169;SDS011;46042;49.444;6.862;2024-02-21T06:05:14;11.77;;;3.50;;
60169;SDS011;46042;49.444;6.862;2024-02-21T06:07:41;8.32;;;3.45;;
60169;SDS011;46042;49.444;6.862;2024-02-21T06:10:09;6.95;;;3.40;;
60169;SDS011;46042;49.444;6.862;2024-02-21T06:12:41;10.00;;;3.17;;
60169;SDS011;46042;49.444;6.862;2024-02-21T06:15:07;10.57;;;3.70;;
60169;SDS011;46042;49.444;6.862;2024-02-21T06:17:35;13.25;;;3.30;;
60169;SDS011;46042;49.444;6.862;2024-02-21T06:20:02;15.25;;;3.40;;
60169;SDS011;46042;49.444;6.862;2024-02-21T06:22:32;10.90;;;3.70;;
60169;SDS011;46042;49.444;6.862;2024-02-21T06:24:59;10.32;;;3.17;;
60169;SDS011;46042;49.444;6.862;2024-02-21T06:27:25;10.90;;;3.70;;
60169;SDS011;46042;49.444;6.862;2024-02-21T06:29:52;8.88;;;3.60;;
60169;SDS011;46042;49.444;6.862;2024-02-21T06:32:19;9.52;;;3.67;;
60169;SDS011;46042;49.444;6.862;2024-02-21T06:34:46;13.98;;;3.28;;
60169;SDS011;46042;49.444;6.862;2024-02-21T06:37:12;9.02;;;3.83;;
60169;SDS011;46042;49.444;6.862;2024-02-21T06:39:39;15.43;;;3.83;;
60169;SDS011;46042;49.444;6.862;2024-02-21T06:42:07;11.55;;;3.55;;
60169;SDS011;46042;49.444;6.862;2024-02-21T06:44:34;16.50;;;3.95;;
60169;SDS011;46042;49.444;6.862;2024-02-21T06:47:06;12.38;;;2.78;;
60169;SDS011;46042;49.444;6.862;2024-02-21T06:49:35;16.13;;;3.65;;
60169;SDS011;46042;49.444;6.862;2024-02-21T06:52:04;8.38;;;3.60;;
60169;SDS011;46042;49.444;6.862;2024-02-21T06:54:31;13.05;;;4.03;;
60169;SDS011;46042;49.444;6.862;2024-02-21T06:56:58;10.05;;;3.85;;
60169;SDS011;46042;49.444;6.862;2024-02-21T06:59:25;11.60;;;3.95;;
60169;SDS011;46042;49.444;6.862;2024-02-21T07:01:53;9.23;;;3.30;;
60169;SDS011;46042;49.444;6.862;2024-02-21T07:04:20;14.45;;;4.55;;
60169;SDS011;46042;49.444;6.862;2024-02-21T07:06:52;8.82;;;3.25;;
60169;SDS011;46042;49.444;6.862;2024-02-21T07:09:19;6.68;;;2.90;;
60169;SDS011;46042;49.444;6.862;2024-02-21T07:11:46;8.75;;;3.65;;
60169;SDS011;46042;49.444;6.862;2024-02-21T07:14:16;9.25;;;3.60;;
60169;SDS011;46042;49.444;6.862;2024-02-21T07:19:11;7.82;;;3.10;;
60169;SDS011;46042;49.444;6.862;2024-02-21T07:21:38;11.02;;;3.33;;
60169;SDS011;46042;49.444;6.862;2024-02-21T07:24:07;9.73;;;3.53;;
60169;SDS011;46042;49.444;6.862;2024-02-21T07:26:34;14.80;;;3.55;;
60169;SDS011;46042;49.444;6.862;2024-02-21T07:29:01;13.43;;;3.35;;
60169;SDS011;46042;49.444;6.862;2024-02-21T07:31:28;7.40;;;3.58;;
60169;SDS011;46042;49.444;6.862;2024-02-21T07:33:55;12.30;;;3.97;;
60169;SDS011;46042;49.444;6.862;2024-02-21T07:36:27;9.35;;;4.22;;
60169;SDS011;46042;49.444;6.862;2024-02-21T07:38:57;15.52;;;3.78;;
60169;SDS011;46042;49.444;6.862;2024-02-21T07:41:24;11.32;;;4.07;;
60169;SDS011;46042;49.444;6.862;2024-02-21T07:43:52;11.07;;;3.88;;
60169;SDS011;46042;49.444;6.862;2024-02-21T07:46:19;11.52;;;3.60;;
60169;SDS011;46042;49.444;6.862;2024-02-21T07:48:46;14.32;;;3.65;;
60169;SDS011;46042;49.444;6.862;2024-02-21T07:51:13;7.50;;;3.50;;
60169;SDS011;46042;49.444;6.862;2024-02-21T07:53:40;14.15;;;3.60;;
60169;SDS011;46042;49.444;6.862;2024-02-21T07:56:14;12.98;;;5.15;;
60169;SDS011;46042;49.444;6.862;2024-02-21T07:58:45;14.70;;;6.40;;
60169;SDS011;46042;49.444;6.862;2024-02-21T08:01:17;24.30;;;7.22;;
60169;SDS011;46042;49.444;6.862;2024-02-21T08:03:46;14.35;;;6.68;;
60169;SDS011;46042;49.444;6.862;2024-02-21T08:06:13;14.60;;;5.40;;
60169;SDS011;46042;49.444;6.862;2024-02-21T08:08:40;14.70;;;5.00;;
60169;SDS011;46042;49.444;6.862;2024-02-21T08:11:07;11.00;;;4.15;;
60169;SDS011;46042;49.444;6.862;2024-02-21T08:13:34;13.13;;;4.32;;
60169;SDS011;46042;49.444;6.862;2024-02-21T08:16:01;11.65;;;3.90;;
60169;SDS011;46042;49.444;6.862;2024-02-21T08:18:29;13.88;;;4.63;;
60169;SDS011;46042;49.444;6.862;2024-02-21T08:20:56;10.20;;;3.63;;
60169;SDS011;46042;49.444;6.862;2024-02-21T08:23:23;10.93;;;3.85;;
60169;SDS011;46042;49.444;6.862;2024-02-21T08:25:50;19.10;;;4.10;;
60169;SDS011;46042;49.444;6.862;2024-02-21T08:28:17;12.07;;;3.67;;
60169;SDS011;46042;49.444;6.862;2024-02-21T08:30:44;10.13;;;3.45;;
60169;SDS011;46042;49.444;6.862;2024-02-21T08:33:14;10.40;;;3.50;;
60169;SDS011;46042;49.444;6.862;2024-02-21T08:35:43;9.32;;;3.97;;
60169;SDS011;46042;49.444;6.862;2024-02-21T08:38:10;8.63;;;3.70;;
60169;SDS011;46042;49.444;6.862;2024-02-21T08:40:37;9.20;;;3.60;;
60169;SDS011;46042;49.444;6.862;2024-02-21T08:43:04;18.15;;;4.20;;
60169;SDS011;46042;49.444;6.862;2024-02-21T08:45:34;14.75;;;4.03;;
60169;SDS011;46042;49.444;6.862;2024-02-21T08:48:00;10.50;;;4.57;;
60169;SDS011;46042;49.444;6.862;2024-02-21T08:50:28;11.27;;;4.15;;
60169;SDS011;46042;49.444;6.862;2024-02-21T08:52:55;12.50;;;4.75;;
60169;SDS011;46042;49.444;6.862;2024-02-21T08:55:23;13.75;;;3.67;;
60169;SDS011;46042;49.444;6.862;2024-02-21T08:57:53;14.50;;;4.05;;
60169;SDS011;46042;49.444;6.862;2024-02-21T09:00:19;13.35;;;4.28;;
60169;SDS011;46042;49.444;6.862;2024-02-21T09:02:50;11.68;;;4.63;;
60169;SDS011;46042;49.444;6.862;2024-02-21T09:05:17;9.48;;;4.75;;
60169;SDS011;46042;49.444;6.862;2024-02-21T09:07:45;17.38;;;4.47;;
60169;SDS011;46042;49.444;6.862;2024-02-21T09:10:15;18.38;;;4.70;;
60169;SDS011;46042;49.444;6.862;2024-02-21T09:12:42;8.10;;;3.73;;
60169;SDS011;46042;49.444;6.862;2024-02-21T09:15:10;8.45;;;3.90;;
60169;SDS011;46042;49.444;6.862;2024-02-21T09:17:37;9.45;;;3.92;;
60169;SDS011;46042;49.444;6.862;2024-02-21T09:20:03;14.77;;;3.95;;
60169;SDS011;46042;49.444;6.862;2024-02-21T09:22:33;15.93;;;5.13;;
60169;SDS011;46042;49.444;6.862;2024-02-21T09:25:01;12.70;;;5.40;;
60169;SDS011;46042;49.444;6.862;2024-02-21T09:27:33;12.70;;;5.47;;
60169;SDS011;46042;49.444;6.862;2024-02-21T09:29:59;17.08;;;5.47;;
60169;SDS011;46042;49.444;6.862;2024-02-21T09:32:27;14.70;;;5.88;;
60169;SDS011;46042;49.444;6.862;2024-02-21T09:34:54;10.50;;;4.53;;
60169;SDS011;46042;49.444;6.862;2024-02-21T09:37:26;11.70;;;4.55;;
60169;SDS011;46042;49.444;6.862;2024-02-21T09:39:53;15.90;;;5.68;;
60169;SDS011;46042;49.444;6.862;2024-02-21T09:42:24;12.30;;;4.63;;
60169;SDS011;46042;49.444;6.862;2024-02-21T09:44:59;14.73;;;4.45;;
60169;SDS011;46042;49.444;6.862;2024-02-21T09:47:40;9.80;;;4.07;;
60169;SDS011;46042;49.444;6.862;2024-02-21T09:50:17;15.32;;;4.45;;
60169;SDS011;46042;49.444;6.862;2024-02-21T09:52:45;11.38;;;3.90;;
60169;SDS011;46042;49.444;6.862;2024-02-21T09:55:13;11.38;;;4.32;;
60169;SDS011;46042;49.444;6.862;2024-02-21T09:57:41;16.98;;;4.40;;
60169;SDS011;46042;49.444;6.862;2024-02-21T10:00:10;11.57;;;4.55;;
60169;SDS011;46042;49.444;6.862;2024-02-21T10:02:39;15.57;;;5.07;;
60169;SDS011;46042;49.444;6.862;2024-02-21T10:05:06;13.10;;;5.28;;
60169;SDS011;46042;49.444;6.862;2024-02-21T10:07:34;13.88;;;4.78;;
60169;SDS011;46042;49.444;6.862;2024-02-21T10:10:02;12.30;;;4.32;;
60169;SDS011;46042;49.444;6.862;2024-02-21T10:12:29;13.25;;;5.15;;
60169;SDS011;46042;49.444;6.862;2024-02-21T10:15:00;9.40;;;4.65;;
60169;SDS011;46042;49.444;6.862;2024-02-21T10:17:30;19.08;;;5.53;;
60169;SDS011;46042;49.444;6.862;2024-02-21T10:20:10;12.68;;;4.95;;
60169;SDS011;46042;49.444;6.862;2024-02-21T10:22:38;10.02;;;4.45;;
60169;SDS011;46042;49.444;6.862;2024-02-21T10:25:07;14.95;;;4.68;;
60169;SDS011;46042;49.444;6.862;2024-02-21T10:27:37;9.07;;;3.95;;
60169;SDS011;46042;49.444;6.862;2024-02-21T10:30:12;8.88;;;4.72;;
60169;SDS011;46042;49.444;6.862;2024-02-21T10:32:50;12.32;;;6.28;;
60169;SDS011;46042;49.444;6.862;2024-02-21T10:35:26;19.80;;;7.75;;
60169;SDS011;46042;49.444;6.862;2024-02-21T10:37:55;18.23;;;8.82;;
60169;SDS011;46042;49.444;6.862;2024-02-21T10:40:29;17.35;;;7.00;;
60169;SDS011;46042;49.444;6.862;2024-02-21T10:42:58;14.75;;;5.35;;
60169;SDS011;46042;49.444;6.862;2024-02-21T10:45:36;12.80;;;6.03;;
60169;SDS011;46042;49.444;6.862;2024-02-21T10:53:36;14.20;;;4.97;;
60169;SDS011;46042;49.444;6.862;2024-02-21T10:58:59;12.35;;;4.95;;
60169;SDS011;46042;49.444;6.862;2024-02-21T11:01:28;10.65;;;5.03;;
60169;SDS011;46042;49.444;6.862;2024-02-21T11:04:01;17.75;;;5.50;;
60169;SDS011;46042;49.444;6.862;2024-02-21T11:06:30;13.73;;;4.75;;
60169;SDS011;46042;49.444;6.862;2024-02-21T11:09:08;11.43;;;5.07;;
60169;SDS011;46042;49.444;6.862;2024-02-21T11:11:55;9.35;;;4.10;;
60169;SDS011;46042;49.444;6.862;2024-02-21T11:14:22;12.52;;;4.03;;
60169;SDS011;46042;49.444;6.862;2024-02-21T11:16:59;10.43;;;4.85;;
60169;SDS011;46042;49.444;6.862;2024-02-21T11:19:27;10.88;;;4.68;;
60169;SDS011;46042;49.444;6.862;2024-02-21T11:21:56;11.75;;;4.10;;
60169;SDS011;46042;49.444;6.862;2024-02-21T11:27:16;12.00;;;4.55;;
60169;SDS011;46042;49.444;6.862;2024-02-21T11:29:48;21.27;;;5.40;;
60169;SDS011;46042;49.444;6.862;2024-02-21T11:32:19;14.00;;;4.63;;
60169;SDS011;46042;49.444;6.862;2024-02-21T11:34:57;5.38;;;3.08;;
60169;SDS011;46042;49.444;6.862;2024-02-21T11:37:34;15.10;;;4.45;;
60169;SDS011;46042;49.444;6.862;2024-02-21T11:40:06;14.18;;;4.15;;
60169;SDS011;46042;49.444;6.862;2024-02-21T11:42:38;13.60;;;3.63;;
60169;SDS011;46042;49.444;6.862;2024-02-21T11:45:06;11.82;;;3.40;;
60169;SDS011;46042;49.444;6.862;2024-02-21T11:47:33;10.57;;;3.88;;
60169;SDS011;46042;49.444;6.862;2024-02-21T11:50:00;11.32;;;3.08;;
60169;SDS011;46042;49.444;6.862;2024-02-21T11:52:27;6.78;;;3.08;;
60169;SDS011;46042;49.444;6.862;2024-02-21T11:54:57;7.38;;;2.58;;
60169;SDS011;46042;49.444;6.862;2024-02-21T11:57:32;8.65;;;3.72;;
60169;SDS011;46042;49.444;6.862;2024-02-21T11:59:58;16.23;;;3.17;;
60169;SDS011;46042;49.444;6.862;2024-02-21T12:02:29;11.68;;;2.90;;
60169;SDS011;46042;49.444;6.862;2024-02-21T12:04:56;12.43;;;3.30;;
60169;SDS011;46042;49.444;6.862;2024-02-21T12:07:24;7.65;;;2.88;;
60169;SDS011;46042;49.444;6.862;2024-02-21T12:09:51;11.05;;;2.97;;
60169;SDS011;46042;49.444;6.862;2024-02-21T12:12:19;7.82;;;3.03;;
60169;SDS011;46042;49.444;6.862;2024-02-21T12:14:53;5.30;;;2.58;;
60169;SDS011;46042;49.444;6.862;2024-02-21T12:17:24;7.22;;;2.50;;
60169;SDS011;46042;49.444;6.862;2024-02-21T12:19:54;10.63;;;2.90;;
60169;SDS011;46042;49.444;6.862;2024-02-21T12:22:21;7.90;;;3.17;;
60169;SDS011;46042;49.444;6.862;2024-02-21T12:24:48;9.63;;;3.05;;
60169;SDS011;46042;49.444;6.862;2024-02-21T12:27:15;9.13;;;4.90;;
60169;SDS011;46042;49.444;6.862;2024-02-21T12:29:42;9.93;;;3.88;;
60169;SDS011;46042;49.444;6.862;2024-02-21T12:32:09;9.95;;;3.22;;
60169;SDS011;46042;49.444;6.862;2024-02-21T12:34:36;13.75;;;3.40;;
60169;SDS011;46042;49.444;6.862;2024-02-21T12:37:19;9.43;;;3.15;;
60169;SDS011;46042;49.444;6.862;2024-02-21T12:39:47;14.27;;;3.30;;
60169;SDS011;46042;49.444;6.862;2024-02-21T12:42:14;11.60;;;3.88;;
60169;SDS011;46042;49.444;6.862;2024-02-21T12:44:42;7.75;;;2.90;;
60169;SDS011;46042;49.444;6.862;2024-02-21T12:47:09;7.57;;;3.67;;
60169;SDS011;46042;49.444;6.862;2024-02-21T12:49:39;9.60;;;2.85;;
60169;SDS011;46042;49.444;6.862;2024-02-21T12:52:11;12.23;;;3.45;;
60169;SDS011;46042;49.444;6.862;2024-02-21T12:54:40;9.30;;;2.53;;
60169;SDS011;46042;49.444;6.862;2024-02-21T12:57:09;10.13;;;3.83;;
60169;SDS011;46042;49.444;6.862;2024-02-21T12:59:36;6.20;;;3.00;;
60169;SDS011;46042;49.444;6.862;2024-02-21T13:02:03;12.50;;;4.35;;
60169;SDS011;46042;49.444;6.862;2024-02-21T13:04:30;6.82;;;3.45;;
60169;SDS011;46042;49.444;6.862;2024-02-21T13:06:57;7.25;;;3.90;;
60169;SDS011;46042;49.444;6.862;2024-02-21T13:09:24;13.52;;;3.75;;
60169;SDS011;46042;49.444;6.862;2024-02-21T13:11:51;8.50;;;3.03;;
60169;SDS011;46042;49.444;6.862;2024-02-21T13:14:18;5.15;;;3.33;;
60169;SDS011;46042;49.444;6.862;2024-02-21T13:16:45;16.17;;;3.50;;
60169;SDS011;46042;49.444;6.862;2024-02-21T13:19:12;10.27;;;3.50;;
60169;SDS011;46042;49.444;6.862;2024-02-21T13:21:44;10.90;;;3.42;;
60169;SDS011;46042;49.444;6.862;2024-02-21T13:24:13;11.80;;;3.90;;
60169;SDS011;46042;49.444;6.862;2024-02-21T13:26:46;9.73;;;3.90;;
60169;SDS011;46042;49.444;6.862;2024-02-21T13:29:13;10.85;;;3.33;;
60169;SDS011;46042;49.444;6.862;2024-02-21T13:31:40;13.20;;;4.47;;
60169;SDS011;46042;49.444;6.862;2024-02-21T13:34:07;13.15;;;4.85;;
60169;SDS011;46042;49.444;6.862;2024-02-21T13:36:37;8.40;;;3.92;;
60169;SDS011;46042;49.444;6.862;2024-02-21T13:39:04;9.98;;;4.78;;
60169;SDS011;46042;49.444;6.862;2024-02-21T13:41:34;14.43;;;4.85;;
60169;SDS011;46042;49.444;6.862;2024-02-21T13:44:01;13.43;;;4.25;;
60169;SDS011;46042;49.444;6.862;2024-02-21T13:46:30;13.18;;;3.78;;
60169;SDS011;46042;49.444;6.862;2024-02-21T13:49:02;10.93;;;3.92;;
60169;SDS011;46042;49.444;6.862;2024-02-21T13:51:32;6.53;;;4.07;;
60169;SDS011;46042;49.444;6.862;2024-02-21T13:53:59;8.70;;;3.85;;
60169;SDS011;46042;49.444;6.862;2024-02-21T13:56:26;10.50;;;4.95;;
60169;SDS011;46042;49.444;6.862;2024-02-21T13:58:53;10.25;;;4.53;;
60169;SDS011;46042;49.444;6.862;2024-02-21T14:01:20;8.50;;;3.45;;
60169;SDS011;46042;49.444;6.862;2024-02-21T14:03:47;8.95;;;3.33;;
60169;SDS011;46042;49.444;6.862;2024-02-21T14:06:14;9.18;;;3.83;;
60169;SDS011;46042;49.444;6.862;2024-02-21T14:08:41;7.90;;;3.70;;
60169;SDS011;46042;49.444;6.862;2024-02-21T14:11:07;8.05;;;3.00;;
60169;SDS011;46042;49.444;6.862;2024-02-21T14:13:37;8.10;;;3.20;;
60169;SDS011;46042;49.444;6.862;2024-02-21T14:16:08;5.82;;;2.90;;
60169;SDS011;46042;49.444;6.862;2024-02-21T14:18:37;5.47;;;2.75;;
60169;SDS011;46042;49.444;6.862;2024-02-21T14:21:04;10.73;;;3.47;;
60169;SDS011;46042;49.444;6.862;2024-02-21T14:23:31;9.60;;;2.67;;
60169;SDS011;46042;49.444;6.862;2024-02-21T14:26:00;6.78;;;2.88;;
60169;SDS011;46042;49.444;6.862;2024-02-21T14:28:26;7.55;;;3.58;;
60169;SDS011;46042;49.444;6.862;2024-02-21T14:30:53;12.32;;;3.15;;
60169;SDS011;46042;49.444;6.862;2024-02-21T14:33:23;9.20;;;3.77;;
60169;SDS011;46042;49.444;6.862;2024-02-21T14:35:54;7.15;;;3.00;;
60169;SDS011;46042;49.444;6.862;2024-02-21T14:38:21;10.75;;;4.47;;
60169;SDS011;46042;49.444;6.862;2024-02-21T14:40:52;18.92;;;9.43;;
60169;SDS011;46042;49.444;6.862;2024-02-21T14:43:32;19.15;;;8.95;;
60169;SDS011;46042;49.444;6.862;2024-02-21T14:46:00;9.77;;;4.32;;
60169;SDS011;46042;49.444;6.862;2024-02-21T14:48:30;9.57;;;5.53;;
60169;SDS011;46042;49.444;6.862;2024-02-21T14:50:58;12.45;;;4.65;;
60169;SDS011;46042;49.444;6.862;2024-02-21T14:53:25;11.73;;;3.38;;
60169;SDS011;46042;49.444;6.862;2024-02-21T14:55:52;9.65;;;3.45;;
60169;SDS011;46042;49.444;6.862;2024-02-21T14:58:18;10.18;;;3.30;;
60169;SDS011;46042;49.444;6.862;2024-02-21T15:00:46;7.78;;;3.85;;
60169;SDS011;46042;49.444;6.862;2024-02-21T15:03:16;9.50;;;3.45;;
60169;SDS011;46042;49.444;6.862;2024-02-21T15:05:47;8.13;;;3.72;;